sensor_id;sensor_type;location;lat;lon;timestamp;P1;durP1;ratioP1;P2;durP2;ratioP2
4533;SDS011;2279;51.448;7.306;2023-05-02T00:01:06;20.17;;;14.77;;
4533;SDS011;2279;51.448;7.306;2023-05-02T00:03:32;26.53;;;16.10;;
4533;SDS011;2279;51.448;7.306;2023-05-02T00:05:58;26.50;;;18.37;;
4533;SDS011;2279;51.448;7.306;2023-05-02T00:08:24;25.77;;;17.20;;
4533;SDS011;2279;51.448;7.306;2023-05-02T00:10:50;27.10;;;17.57;;
4533;SDS011;2279;51.448;7.306;2023-05-02T00:13:16;30.07;;;18.80;;
4533;SDS011;2279;51.448;7.306;2023-05-02T00:15:42;28.67;;;18.20;;
4533;SDS011;2279;51.448;7.306;2023-05-02T00:18:08;31.07;;;18.70;;
4533;SDS011;2279;51.448;7.306;2023-05-02T00:20:34;29.27;;;18.73;;
4533;SDS011;2279;51.448;7.306;2023-05-02T00:23:00;26.17;;;18.70;;
4533;SDS011;2279;51.448;7.306;2023-05-02T00:25:26;31.33;;;18.70;;
4533;SDS011;2279;51.448;7.306;2023-05-02T00:27:52;30.00;;;19.33;;
4533;SDS011;2279;51.448;7.306;2023-05-02T00:30:19;26.50;;;17.97;;
4533;SDS011;2279;51.448;7.306;2023-05-02T00:32:45;24.73;;;17.33;;
4533;SDS011;2279;51.448;7.306;2023-05-02T00:35:11;21.97;;;16.20;;
4533;SDS011;2279;51.448;7.306;2023-05-02T00:37:37;23.50;;;17.20;;
4533;SDS011;2279;51.448;7.306;2023-05-02T00:40:03;24.10;;;17.00;;
4533;SDS011;2279;51.448;7.306;2023-05-02T00:42:31;30.93;;;17.37;;
4533;SDS011;2279;51.448;7.306;2023-05-02T00:44:58;29.77;;;18.63;;
4533;SDS011;2279;51.448;7.306;2023-05-02T00:47:24;29.33;;;18.80;;
4533;SDS011;2279;51.448;7.306;2023-05-02T00:49:51;25.27;;;17.90;;
4533;SDS011;2279;51.448;7.306;2023-05-02T00:52:17;32.37;;;19.90;;
4533;SDS011;2279;51.448;7.306;2023-05-02T00:54:44;32.30;;;19.60;;
4533;SDS011;2279;51.448;7.306;2023-05-02T00:57:11;30.97;;;21.13;;
4533;SDS011;2279;51.448;7.306;2023-05-02T00:59:37;33.20;;;20.83;;
4533;SDS011;2279;51.448;7.306;2023-05-02T01:02:08;31.40;;;20.60;;
4533;SDS011;2279;51.448;7.306;2023-05-02T01:04:41;31.00;;;21.07;;
4533;SDS011;2279;51.448;7.306;2023-05-02T01:07:13;32.47;;;19.80;;
4533;SDS011;2279;51.448;7.306;2023-05-02T01:12:31;34.20;;;23.50;;
4533;SDS011;2279;51.448;7.306;2023-05-02T01:15:01;36.67;;;21.90;;
4533;SDS011;2279;51.448;7.306;2023-05-02T01:17:30;35.40;;;21.57;;
4533;SDS011;2279;51.448;7.306;2023-05-02T01:19:58;42.33;;;22.60;;
4533;SDS011;2279;51.448;7.306;2023-05-02T01:22:28;42.40;;;23.00;;
4533;SDS011;2279;51.448;7.306;2023-05-02T01:27:27;44.63;;;24.47;;
4533;SDS011;2279;51.448;7.306;2023-05-02T01:29:55;40.20;;;23.50;;
4533;SDS011;2279;51.448;7.306;2023-05-02T01:32:22;43.43;;;24.23;;
4533;SDS011;2279;51.448;7.306;2023-05-02T01:34:49;46.30;;;24.50;;
4533;SDS011;2279;51.448;7.306;2023-05-02T01:37:16;43.00;;;23.87;;
4533;SDS011;2279;51.448;7.306;2023-05-02T01:39:42;46.73;;;24.90;;
4533;SDS011;2279;51.448;7.306;2023-05-02T01:42:09;47.50;;;25.43;;
4533;SDS011;2279;51.448;7.306;2023-05-02T01:44:36;49.67;;;26.63;;
4533;SDS011;2279;51.448;7.306;2023-05-02T01:47:03;44.50;;;25.37;;
4533;SDS011;2279;51.448;7.306;2023-05-02T01:49:31;45.87;;;24.90;;
4533;SDS011;2279;51.448;7.306;2023-05-02T01:51:57;42.33;;;25.73;;
4533;SDS011;2279;51.448;7.306;2023-05-02T01:54:27;49.67;;;25.07;;
4533;SDS011;2279;51.448;7.306;2023-05-02T01:56:54;48.13;;;24.33;;
4533;SDS011;2279;51.448;7.306;2023-05-02T01:59:21;58.03;;;30.53;;
4533;SDS011;2279;51.448;7.306;2023-05-02T02:01:49;56.53;;;30.57;;
4533;SDS011;2279;51.448;7.306;2023-05-02T02:04:16;45.57;;;26.10;;
4533;SDS011;2279;51.448;7.306;2023-05-02T02:06:45;56.93;;;30.17;;
4533;SDS011;2279;51.448;7.306;2023-05-02T02:09:12;60.03;;;29.07;;
4533;SDS011;2279;51.448;7.306;2023-05-02T02:11:43;56.43;;;27.60;;
4533;SDS011;2279;51.448;7.306;2023-05-02T02:14:20;50.67;;;25.87;;
4533;SDS011;2279;51.448;7.306;2023-05-02T02:16:46;56.43;;;30.07;;
4533;SDS011;2279;51.448;7.306;2023-05-02T02:19:13;49.30;;;28.13;;
4533;SDS011;2279;51.448;7.306;2023-05-02T02:21:41;48.07;;;27.17;;
4533;SDS011;2279;51.448;7.306;2023-05-02T02:24:08;55.00;;;26.73;;
4533;SDS011;2279;51.448;7.306;2023-05-02T02:26:34;47.40;;;26.40;;
4533;SDS011;2279;51.448;7.306;2023-05-02T02:29:01;49.80;;;28.23;;
4533;SDS011;2279;51.448;7.306;2023-05-02T02:31:33;51.77;;;26.97;;
4533;SDS011;2279;51.448;7.306;2023-05-02T02:34:00;45.87;;;25.20;;
4533;SDS011;2279;51.448;7.306;2023-05-02T02:44:32;47.30;;;23.70;;
4533;SDS011;2279;51.448;7.306;2023-05-02T02:47:04;45.20;;;23.90;;
4533;SDS011;2279;51.448;7.306;2023-05-02T02:52:13;48.50;;;24.47;;
4533;SDS011;2279;51.448;7.306;2023-05-02T02:54:45;58.23;;;25.50;;
4533;SDS011;2279;51.448;7.306;2023-05-02T02:57:16;46.80;;;24.00;;
4533;SDS011;2279;51.448;7.306;2023-05-02T02:59:47;41.70;;;22.73;;
4533;SDS011;2279;51.448;7.306;2023-05-02T03:02:16;42.00;;;22.60;;
4533;SDS011;2279;51.448;7.306;2023-05-02T03:04:42;41.63;;;22.80;;
4533;SDS011;2279;51.448;7.306;2023-05-02T03:07:09;48.20;;;23.20;;
4533;SDS011;2279;51.448;7.306;2023-05-02T03:09:44;45.73;;;24.33;;
4533;SDS011;2279;51.448;7.306;2023-05-02T03:12:10;42.07;;;21.40;;
4533;SDS011;2279;51.448;7.306;2023-05-02T03:14:37;40.30;;;20.77;;
4533;SDS011;2279;51.448;7.306;2023-05-02T03:17:03;45.07;;;22.37;;
4533;SDS011;2279;51.448;7.306;2023-05-02T03:19:29;44.20;;;21.80;;
4533;SDS011;2279;51.448;7.306;2023-05-02T03:21:55;40.93;;;21.50;;
4533;SDS011;2279;51.448;7.306;2023-05-02T03:24:21;40.27;;;19.13;;
4533;SDS011;2279;51.448;7.306;2023-05-02T03:26:47;37.50;;;17.57;;
4533;SDS011;2279;51.448;7.306;2023-05-02T03:29:13;35.20;;;17.70;;
4533;SDS011;2279;51.448;7.306;2023-05-02T03:31:39;32.80;;;17.50;;
4533;SDS011;2279;51.448;7.306;2023-05-02T03:34:05;31.80;;;16.47;;
4533;SDS011;2279;51.448;7.306;2023-05-02T03:36:31;32.67;;;16.93;;
4533;SDS011;2279;51.448;7.306;2023-05-02T03:38:58;28.57;;;15.70;;
4533;SDS011;2279;51.448;7.306;2023-05-02T03:41:23;28.13;;;14.50;;
4533;SDS011;2279;51.448;7.306;2023-05-02T03:43:50;28.40;;;15.17;;
4533;SDS011;2279;51.448;7.306;2023-05-02T03:46:16;26.53;;;13.20;;
4533;SDS011;2279;51.448;7.306;2023-05-02T03:48:42;27.37;;;13.40;;
4533;SDS011;2279;51.448;7.306;2023-05-02T03:51:10;28.23;;;14.43;;
4533;SDS011;2279;51.448;7.306;2023-05-02T03:53:36;21.30;;;12.10;;
4533;SDS011;2279;51.448;7.306;2023-05-02T03:56:02;24.83;;;14.43;;
4533;SDS011;2279;51.448;7.306;2023-05-02T03:58:28;27.57;;;12.70;;
4533;SDS011;2279;51.448;7.306;2023-05-02T04:00:54;26.30;;;13.33;;
4533;SDS011;2279;51.448;7.306;2023-05-02T04:03:20;30.30;;;15.20;;
4533;SDS011;2279;51.448;7.306;2023-05-02T04:05:46;26.07;;;13.90;;
4533;SDS011;2279;51.448;7.306;2023-05-02T04:08:12;31.67;;;15.63;;
4533;SDS011;2279;51.448;7.306;2023-05-02T04:10:38;23.77;;;12.80;;
4533;SDS011;2279;51.448;7.306;2023-05-02T04:13:04;24.57;;;13.77;;
4533;SDS011;2279;51.448;7.306;2023-05-02T04:15:32;24.30;;;13.17;;
4533;SDS011;2279;51.448;7.306;2023-05-02T04:17:58;28.07;;;14.87;;
4533;SDS011;2279;51.448;7.306;2023-05-02T04:20:24;20.10;;;11.37;;
4533;SDS011;2279;51.448;7.306;2023-05-02T04:22:50;24.20;;;13.47;;
4533;SDS011;2279;51.448;7.306;2023-05-02T04:25:17;22.83;;;11.53;;
4533;SDS011;2279;51.448;7.306;2023-05-02T04:27:43;22.03;;;13.13;;
4533;SDS011;2279;51.448;7.306;2023-05-02T04:30:09;32.00;;;15.40;;
4533;SDS011;2279;51.448;7.306;2023-05-02T04:32:35;25.53;;;13.70;;
4533;SDS011;2279;51.448;7.306;2023-05-02T04:35:03;26.57;;;13.43;;
4533;SDS011;2279;51.448;7.306;2023-05-02T04:37:30;27.90;;;13.57;;
4533;SDS011;2279;51.448;7.306;2023-05-02T04:39:56;33.10;;;14.10;;
4533;SDS011;2279;51.448;7.306;2023-05-02T04:42:23;35.10;;;16.03;;
4533;SDS011;2279;51.448;7.306;2023-05-02T04:44:49;21.73;;;12.10;;
4533;SDS011;2279;51.448;7.306;2023-05-02T04:47:15;29.63;;;13.23;;
4533;SDS011;2279;51.448;7.306;2023-05-02T04:49:42;22.67;;;12.80;;
4533;SDS011;2279;51.448;7.306;2023-05-02T04:52:09;27.47;;;11.33;;
4533;SDS011;2279;51.448;7.306;2023-05-02T04:54:35;26.70;;;15.87;;
4533;SDS011;2279;51.448;7.306;2023-05-02T04:57:01;25.27;;;12.07;;
4533;SDS011;2279;51.448;7.306;2023-05-02T04:59:31;30.67;;;13.30;;
4533;SDS011;2279;51.448;7.306;2023-05-02T05:01:57;30.30;;;13.87;;
4533;SDS011;2279;51.448;7.306;2023-05-02T05:04:23;25.67;;;13.33;;
4533;SDS011;2279;51.448;7.306;2023-05-02T05:06:49;32.93;;;14.73;;
4533;SDS011;2279;51.448;7.306;2023-05-02T05:09:15;21.93;;;13.37;;
4533;SDS011;2279;51.448;7.306;2023-05-02T05:11:41;27.57;;;14.10;;
4533;SDS011;2279;51.448;7.306;2023-05-02T05:14:07;21.67;;;13.10;;
4533;SDS011;2279;51.448;7.306;2023-05-02T05:16:33;29.20;;;13.93;;
4533;SDS011;2279;51.448;7.306;2023-05-02T05:18:59;24.67;;;13.80;;
4533;SDS011;2279;51.448;7.306;2023-05-02T05:21:25;23.97;;;12.63;;
4533;SDS011;2279;51.448;7.306;2023-05-02T05:23:52;32.50;;;14.70;;
4533;SDS011;2279;51.448;7.306;2023-05-02T05:26:18;27.63;;;14.40;;
4533;SDS011;2279;51.448;7.306;2023-05-02T05:28:45;32.07;;;15.33;;
4533;SDS011;2279;51.448;7.306;2023-05-02T05:31:12;28.73;;;15.20;;
4533;SDS011;2279;51.448;7.306;2023-05-02T05:33:41;34.20;;;14.90;;
4533;SDS011;2279;51.448;7.306;2023-05-02T05:36:08;20.40;;;12.60;;
4533;SDS011;2279;51.448;7.306;2023-05-02T05:38:35;23.80;;;10.80;;
4533;SDS011;2279;51.448;7.306;2023-05-02T05:41:01;20.33;;;9.80;;
4533;SDS011;2279;51.448;7.306;2023-05-02T05:43:27;15.40;;;8.03;;
4533;SDS011;2279;51.448;7.306;2023-05-02T05:45:54;13.03;;;9.30;;
4533;SDS011;2279;51.448;7.306;2023-05-02T05:48:20;12.20;;;8.77;;
4533;SDS011;2279;51.448;7.306;2023-05-02T05:50:47;18.10;;;8.57;;
4533;SDS011;2279;51.448;7.306;2023-05-02T05:53:13;15.83;;;8.87;;
4533;SDS011;2279;51.448;7.306;2023-05-02T05:55:39;12.60;;;7.90;;
4533;SDS011;2279;51.448;7.306;2023-05-02T05:58:06;15.97;;;9.73;;
4533;SDS011;2279;51.448;7.306;2023-05-02T06:00:35;13.90;;;9.10;;
4533;SDS011;2279;51.448;7.306;2023-05-02T06:03:02;12.40;;;8.20;;
4533;SDS011;2279;51.448;7.306;2023-05-02T06:05:28;14.87;;;8.90;;
4533;SDS011;2279;51.448;7.306;2023-05-02T06:07:55;15.47;;;8.83;;
4533;SDS011;2279;51.448;7.306;2023-05-02T06:10:21;14.63;;;9.57;;
4533;SDS011;2279;51.448;7.306;2023-05-02T06:12:47;18.67;;;9.83;;
4533;SDS011;2279;51.448;7.306;2023-05-02T06:15:13;9.03;;;5.93;;
4533;SDS011;2279;51.448;7.306;2023-05-02T06:17:39;9.60;;;6.57;;
4533;SDS011;2279;51.448;7.306;2023-05-02T06:20:05;13.60;;;8.00;;
4533;SDS011;2279;51.448;7.306;2023-05-02T06:22:31;15.13;;;7.03;;
4533;SDS011;2279;51.448;7.306;2023-05-02T06:24:57;11.73;;;7.60;;
4533;SDS011;2279;51.448;7.306;2023-05-02T06:27:24;12.80;;;8.00;;
4533;SDS011;2279;51.448;7.306;2023-05-02T06:29:50;15.03;;;7.97;;
4533;SDS011;2279;51.448;7.306;2023-05-02T06:32:17;15.47;;;8.63;;
4533;SDS011;2279;51.448;7.306;2023-05-02T06:34:43;14.57;;;9.20;;
4533;SDS011;2279;51.448;7.306;2023-05-02T06:37:09;10.43;;;7.93;;
4533;SDS011;2279;51.448;7.306;2023-05-02T06:39:35;13.10;;;8.60;;
4533;SDS011;2279;51.448;7.306;2023-05-02T06:42:01;14.67;;;7.73;;
4533;SDS011;2279;51.448;7.306;2023-05-02T06:44:27;13.53;;;8.93;;
4533;SDS011;2279;51.448;7.306;2023-05-02T06:46:53;14.43;;;8.57;;
4533;SDS011;2279;51.448;7.306;2023-05-02T06:49:22;16.37;;;9.30;;
4533;SDS011;2279;51.448;7.306;2023-05-02T06:51:48;14.33;;;9.03;;
4533;SDS011;2279;51.448;7.306;2023-05-02T06:54:14;11.40;;;7.67;;
4533;SDS011;2279;51.448;7.306;2023-05-02T06:56:41;14.47;;;8.90;;
4533;SDS011;2279;51.448;7.306;2023-05-02T06:59:07;11.90;;;8.73;;
4533;SDS011;2279;51.448;7.306;2023-05-02T07:01:33;14.83;;;8.87;;
4533;SDS011;2279;51.448;7.306;2023-05-02T07:04:02;13.30;;;7.50;;
4533;SDS011;2279;51.448;7.306;2023-05-02T07:06:29;14.00;;;8.70;;
4533;SDS011;2279;51.448;7.306;2023-05-02T07:08:55;11.40;;;7.70;;
4533;SDS011;2279;51.448;7.306;2023-05-02T07:11:21;18.67;;;11.60;;
4533;SDS011;2279;51.448;7.306;2023-05-02T07:13:48;18.60;;;8.67;;
4533;SDS011;2279;51.448;7.306;2023-05-02T07:16:14;11.23;;;7.53;;
4533;SDS011;2279;51.448;7.306;2023-05-02T07:18:40;9.93;;;6.87;;
4533;SDS011;2279;51.448;7.306;2023-05-02T07:21:06;10.87;;;7.00;;
4533;SDS011;2279;51.448;7.306;2023-05-02T07:23:33;7.83;;;6.40;;
4533;SDS011;2279;51.448;7.306;2023-05-02T07:25:59;16.67;;;6.40;;
4533;SDS011;2279;51.448;7.306;2023-05-02T07:28:25;14.60;;;8.97;;
4533;SDS011;2279;51.448;7.306;2023-05-02T07:30:51;11.10;;;7.07;;
4533;SDS011;2279;51.448;7.306;2023-05-02T07:33:16;8.50;;;6.50;;
4533;SDS011;2279;51.448;7.306;2023-05-02T07:35:42;7.57;;;5.83;;
4533;SDS011;2279;51.448;7.306;2023-05-02T07:38:09;10.30;;;8.10;;
4533;SDS011;2279;51.448;7.306;2023-05-02T07:40:35;8.30;;;6.60;;
4533;SDS011;2279;51.448;7.306;2023-05-02T07:43:01;17.60;;;7.43;;
4533;SDS011;2279;51.448;7.306;2023-05-02T07:45:27;11.63;;;7.47;;
4533;SDS011;2279;51.448;7.306;2023-05-02T07:47:53;12.10;;;8.07;;
4533;SDS011;2279;51.448;7.306;2023-05-02T07:50:19;9.90;;;6.83;;
4533;SDS011;2279;51.448;7.306;2023-05-02T07:52:45;17.27;;;6.10;;
4533;SDS011;2279;51.448;7.306;2023-05-02T07:55:11;9.40;;;6.70;;
4533;SDS011;2279;51.448;7.306;2023-05-02T07:57:37;8.03;;;5.87;;
4533;SDS011;2279;51.448;7.306;2023-05-02T08:00:03;11.53;;;8.10;;
4533;SDS011;2279;51.448;7.306;2023-05-02T08:02:34;8.13;;;6.13;;
4533;SDS011;2279;51.448;7.306;2023-05-02T08:05:03;9.47;;;5.47;;
4533;SDS011;2279;51.448;7.306;2023-05-02T08:07:30;7.00;;;4.40;;
4533;SDS011;2279;51.448;7.306;2023-05-02T08:09:57;5.03;;;4.50;;
4533;SDS011;2279;51.448;7.306;2023-05-02T08:12:23;5.63;;;4.30;;
4533;SDS011;2279;51.448;7.306;2023-05-02T08:14:49;5.03;;;3.90;;
4533;SDS011;2279;51.448;7.306;2023-05-02T08:17:15;4.67;;;3.67;;
4533;SDS011;2279;51.448;7.306;2023-05-02T08:19:41;4.93;;;3.57;;
4533;SDS011;2279;51.448;7.306;2023-05-02T08:22:07;5.80;;;3.47;;
4533;SDS011;2279;51.448;7.306;2023-05-02T08:24:32;4.93;;;3.77;;
4533;SDS011;2279;51.448;7.306;2023-05-02T08:26:58;7.17;;;3.90;;
4533;SDS011;2279;51.448;7.306;2023-05-02T08:29:27;5.87;;;3.93;;
4533;SDS011;2279;51.448;7.306;2023-05-02T08:31:53;5.30;;;4.10;;
4533;SDS011;2279;51.448;7.306;2023-05-02T08:34:19;5.93;;;4.00;;
4533;SDS011;2279;51.448;7.306;2023-05-02T08:36:45;5.43;;;4.10;;
4533;SDS011;2279;51.448;7.306;2023-05-02T08:39:11;7.03;;;4.03;;
4533;SDS011;2279;51.448;7.306;2023-05-02T08:41:37;7.40;;;4.27;;
4533;SDS011;2279;51.448;7.306;2023-05-02T08:44:04;6.17;;;3.93;;
4533;SDS011;2279;51.448;7.306;2023-05-02T08:46:31;5.97;;;5.13;;
4533;SDS011;2279;51.448;7.306;2023-05-02T08:48:59;9.00;;;4.40;;
4533;SDS011;2279;51.448;7.306;2023-05-02T08:51:25;10.40;;;4.90;;
4533;SDS011;2279;51.448;7.306;2023-05-02T08:53:52;8.97;;;5.20;;
4533;SDS011;2279;51.448;7.306;2023-05-02T08:56:19;12.37;;;5.00;;
4533;SDS011;2279;51.448;7.306;2023-05-02T08:58:45;6.43;;;5.07;;
4533;SDS011;2279;51.448;7.306;2023-05-02T09:01:15;10.53;;;4.40;;
4533;SDS011;2279;51.448;7.306;2023-05-02T09:03:42;5.90;;;4.40;;
4533;SDS011;2279;51.448;7.306;2023-05-02T09:06:09;10.53;;;5.10;;
4533;SDS011;2279;51.448;7.306;2023-05-02T09:08:39;8.73;;;4.53;;
4533;SDS011;2279;51.448;7.306;2023-05-02T09:11:05;5.93;;;4.77;;
4533;SDS011;2279;51.448;7.306;2023-05-02T09:13:36;8.40;;;4.80;;
4533;SDS011;2279;51.448;7.306;2023-05-02T09:18:32;8.47;;;5.43;;
4533;SDS011;2279;51.448;7.306;2023-05-02T09:20:58;7.17;;;5.03;;
4533;SDS011;2279;51.448;7.306;2023-05-02T09:23:35;11.00;;;5.90;;
4533;SDS011;2279;51.448;7.306;2023-05-02T09:26:09;11.23;;;5.37;;
4533;SDS011;2279;51.448;7.306;2023-05-02T09:28:51;9.10;;;5.30;;
4533;SDS011;2279;51.448;7.306;2023-05-02T09:31:19;10.00;;;5.00;;
4533;SDS011;2279;51.448;7.306;2023-05-02T09:33:45;18.23;;;6.00;;
4533;SDS011;2279;51.448;7.306;2023-05-02T09:36:13;11.10;;;5.13;;
4533;SDS011;2279;51.448;7.306;2023-05-02T09:38:39;10.03;;;5.40;;
4533;SDS011;2279;51.448;7.306;2023-05-02T09:41:05;12.60;;;4.77;;
4533;SDS011;2279;51.448;7.306;2023-05-02T09:43:31;7.70;;;5.33;;
4533;SDS011;2279;51.448;7.306;2023-05-02T09:48:25;9.83;;;5.53;;
4533;SDS011;2279;51.448;7.306;2023-05-02T09:50:51;9.53;;;5.63;;
4533;SDS011;2279;51.448;7.306;2023-05-02T09:53:16;9.43;;;4.90;;
4533;SDS011;2279;51.448;7.306;2023-05-02T09:55:42;6.90;;;5.03;;
4533;SDS011;2279;51.448;7.306;2023-05-02T09:58:21;8.90;;;5.87;;
4533;SDS011;2279;51.448;7.306;2023-05-02T10:00:49;8.83;;;5.03;;
4533;SDS011;2279;51.448;7.306;2023-05-02T10:03:17;12.17;;;5.47;;
4533;SDS011;2279;51.448;7.306;2023-05-02T10:05:44;9.97;;;4.80;;
4533;SDS011;2279;51.448;7.306;2023-05-02T10:08:10;14.97;;;8.70;;
4533;SDS011;2279;51.448;7.306;2023-05-02T10:10:40;6.40;;;4.40;;
4533;SDS011;2279;51.448;7.306;2023-05-02T10:13:08;7.67;;;4.90;;
4533;SDS011;2279;51.448;7.306;2023-05-02T10:15:36;5.00;;;3.70;;
4533;SDS011;2279;51.448;7.306;2023-05-02T10:18:07;9.30;;;5.90;;
4533;SDS011;2279;51.448;7.306;2023-05-02T10:20:34;6.37;;;4.67;;
4533;SDS011;2279;51.448;7.306;2023-05-02T10:23:02;8.37;;;5.37;;
4533;SDS011;2279;51.448;7.306;2023-05-02T10:25:30;5.50;;;4.13;;
4533;SDS011;2279;51.448;7.306;2023-05-02T10:27:58;9.97;;;4.20;;
4533;SDS011;2279;51.448;7.306;2023-05-02T10:30:24;7.60;;;4.70;;
4533;SDS011;2279;51.448;7.306;2023-05-02T10:32:51;5.70;;;4.17;;
4533;SDS011;2279;51.448;7.306;2023-05-02T10:35:20;4.50;;;3.70;;
4533;SDS011;2279;51.448;7.306;2023-05-02T10:37:47;5.70;;;4.10;;
4533;SDS011;2279;51.448;7.306;2023-05-02T10:40:13;4.83;;;3.87;;
4533;SDS011;2279;51.448;7.306;2023-05-02T10:42:41;5.80;;;4.10;;
4533;SDS011;2279;51.448;7.306;2023-05-02T10:45:10;8.73;;;4.67;;
4533;SDS011;2279;51.448;7.306;2023-05-02T10:47:36;6.80;;;3.87;;
4533;SDS011;2279;51.448;7.306;2023-05-02T10:50:02;7.63;;;4.43;;
4533;SDS011;2279;51.448;7.306;2023-05-02T10:52:33;12.37;;;4.70;;
4533;SDS011;2279;51.448;7.306;2023-05-02T10:55:12;6.50;;;4.47;;
4533;SDS011;2279;51.448;7.306;2023-05-02T11:00:24;13.43;;;6.20;;
4533;SDS011;2279;51.448;7.306;2023-05-02T11:10:48;9.10;;;5.77;;
4533;SDS011;2279;51.448;7.306;2023-05-02T11:13:14;8.57;;;6.00;;
4533;SDS011;2279;51.448;7.306;2023-05-02T11:18:12;11.13;;;5.90;;
4533;SDS011;2279;51.448;7.306;2023-05-02T11:20:43;11.10;;;7.07;;
4533;SDS011;2279;51.448;7.306;2023-05-02T11:25:56;11.20;;;7.27;;
4533;SDS011;2279;51.448;7.306;2023-05-02T11:31:06;15.67;;;6.67;;
4533;SDS011;2279;51.448;7.306;2023-05-02T11:33:33;9.10;;;5.93;;
4533;SDS011;2279;51.448;7.306;2023-05-02T11:35:59;7.73;;;6.93;;
4533;SDS011;2279;51.448;7.306;2023-05-02T11:38:26;13.23;;;6.63;;
4533;SDS011;2279;51.448;7.306;2023-05-02T11:40:59;10.30;;;5.57;;
4533;SDS011;2279;51.448;7.306;2023-05-02T11:43:27;9.27;;;5.73;;
4533;SDS011;2279;51.448;7.306;2023-05-02T11:45:53;9.67;;;6.10;;
4533;SDS011;2279;51.448;7.306;2023-05-02T11:48:20;14.17;;;5.93;;
4533;SDS011;2279;51.448;7.306;2023-05-02T11:50:48;10.73;;;6.00;;
4533;SDS011;2279;51.448;7.306;2023-05-02T11:53:15;11.57;;;6.00;;
4533;SDS011;2279;51.448;7.306;2023-05-02T11:55:48;17.10;;;7.77;;
4533;SDS011;2279;51.448;7.306;2023-05-02T11:58:15;10.00;;;5.70;;
4533;SDS011;2279;51.448;7.306;2023-05-02T12:00:42;9.27;;;6.30;;
4533;SDS011;2279;51.448;7.306;2023-05-02T12:03:20;14.13;;;6.03;;
4533;SDS011;2279;51.448;7.306;2023-05-02T12:05:46;8.67;;;5.27;;
4533;SDS011;2279;51.448;7.306;2023-05-02T12:08:26;11.30;;;5.67;;
4533;SDS011;2279;51.448;7.306;2023-05-02T12:10:55;11.50;;;5.50;;
4533;SDS011;2279;51.448;7.306;2023-05-02T12:13:22;9.10;;;5.37;;
4533;SDS011;2279;51.448;7.306;2023-05-02T12:15:49;13.97;;;6.30;;
4533;SDS011;2279;51.448;7.306;2023-05-02T12:18:15;9.00;;;5.30;;
4533;SDS011;2279;51.448;7.306;2023-05-02T12:20:42;11.23;;;4.97;;
4533;SDS011;2279;51.448;7.306;2023-05-02T12:23:09;9.40;;;5.47;;
4533;SDS011;2279;51.448;7.306;2023-05-02T12:25:38;7.77;;;5.40;;
4533;SDS011;2279;51.448;7.306;2023-05-02T12:28:05;12.50;;;5.50;;
4533;SDS011;2279;51.448;7.306;2023-05-02T12:30:31;7.63;;;4.93;;
4533;SDS011;2279;51.448;7.306;2023-05-02T12:32:58;6.40;;;5.27;;
4533;SDS011;2279;51.448;7.306;2023-05-02T12:35:25;8.90;;;4.30;;
4533;SDS011;2279;51.448;7.306;2023-05-02T12:37:52;10.10;;;4.77;;
4533;SDS011;2279;51.448;7.306;2023-05-02T12:40:18;8.00;;;4.60;;
4533;SDS011;2279;51.448;7.306;2023-05-02T12:43:00;8.70;;;5.00;;
4533;SDS011;2279;51.448;7.306;2023-05-02T12:45:31;9.70;;;5.53;;
4533;SDS011;2279;51.448;7.306;2023-05-02T12:48:01;7.03;;;4.37;;
4533;SDS011;2279;51.448;7.306;2023-05-02T12:50:38;6.57;;;4.77;;
4533;SDS011;2279;51.448;7.306;2023-05-02T12:53:04;9.10;;;5.47;;
4533;SDS011;2279;51.448;7.306;2023-05-02T12:55:31;6.07;;;5.20;;
4533;SDS011;2279;51.448;7.306;2023-05-02T12:58:10;7.20;;;4.87;;
4533;SDS011;2279;51.448;7.306;2023-05-02T13:00:40;7.43;;;4.73;;
4533;SDS011;2279;51.448;7.306;2023-05-02T13:03:07;8.93;;;4.70;;
4533;SDS011;2279;51.448;7.306;2023-05-02T13:05:33;11.03;;;4.43;;
4533;SDS011;2279;51.448;7.306;2023-05-02T13:07:59;6.73;;;4.93;;
4533;SDS011;2279;51.448;7.306;2023-05-02T13:10:26;8.03;;;5.73;;
4533;SDS011;2279;51.448;7.306;2023-05-02T13:12:52;5.23;;;4.50;;
4533;SDS011;2279;51.448;7.306;2023-05-02T13:15:18;5.93;;;5.13;;
4533;SDS011;2279;51.448;7.306;2023-05-02T13:17:44;8.10;;;4.83;;
4533;SDS011;2279;51.448;7.306;2023-05-02T13:20:10;8.80;;;5.30;;
4533;SDS011;2279;51.448;7.306;2023-05-02T13:22:36;8.17;;;6.03;;
4533;SDS011;2279;51.448;7.306;2023-05-02T13:25:03;8.10;;;5.13;;
4533;SDS011;2279;51.448;7.306;2023-05-02T13:27:29;6.50;;;4.60;;
4533;SDS011;2279;51.448;7.306;2023-05-02T13:29:55;7.37;;;4.20;;
4533;SDS011;2279;51.448;7.306;2023-05-02T13:32:21;8.37;;;5.13;;
4533;SDS011;2279;51.448;7.306;2023-05-02T13:34:47;6.57;;;5.43;;
4533;SDS011;2279;51.448;7.306;2023-05-02T13:37:13;11.30;;;5.33;;
4533;SDS011;2279;51.448;7.306;2023-05-02T13:39:39;5.43;;;4.90;;
4533;SDS011;2279;51.448;7.306;2023-05-02T13:42:05;8.27;;;5.27;;
4533;SDS011;2279;51.448;7.306;2023-05-02T13:44:31;5.87;;;4.70;;
4533;SDS011;2279;51.448;7.306;2023-05-02T13:46:57;8.23;;;5.03;;
4533;SDS011;2279;51.448;7.306;2023-05-02T13:49:23;9.57;;;5.80;;
4533;SDS011;2279;51.448;7.306;2023-05-02T13:51:49;7.33;;;5.57;;
4533;SDS011;2279;51.448;7.306;2023-05-02T13:54:15;8.60;;;6.10;;
4533;SDS011;2279;51.448;7.306;2023-05-02T13:56:41;7.40;;;4.37;;
4533;SDS011;2279;51.448;7.306;2023-05-02T13:59:08;8.33;;;4.97;;
4533;SDS011;2279;51.448;7.306;2023-05-02T14:01:34;10.40;;;4.63;;
4533;SDS011;2279;51.448;7.306;2023-05-02T14:04:00;5.00;;;4.50;;
4533;SDS011;2279;51.448;7.306;2023-05-02T14:06:32;5.13;;;4.47;;
4533;SDS011;2279;51.448;7.306;2023-05-02T14:08:59;9.20;;;4.57;;
4533;SDS011;2279;51.448;7.306;2023-05-02T14:11:25;5.90;;;4.30;;
4533;SDS011;2279;51.448;7.306;2023-05-02T14:13:51;10.37;;;6.57;;
4533;SDS011;2279;51.448;7.306;2023-05-02T14:16:17;11.30;;;4.70;;
4533;SDS011;2279;51.448;7.306;2023-05-02T14:18:43;8.30;;;4.73;;
4533;SDS011;2279;51.448;7.306;2023-05-02T14:21:14;7.27;;;4.93;;
4533;SDS011;2279;51.448;7.306;2023-05-02T14:23:40;6.97;;;5.30;;
4533;SDS011;2279;51.448;7.306;2023-05-02T14:26:06;9.00;;;4.50;;
4533;SDS011;2279;51.448;7.306;2023-05-02T14:28:32;7.07;;;4.80;;
4533;SDS011;2279;51.448;7.306;2023-05-02T14:30:58;6.37;;;5.10;;
4533;SDS011;2279;51.448;7.306;2023-05-02T14:33:24;7.13;;;4.40;;
4533;SDS011;2279;51.448;7.306;2023-05-02T14:35:50;14.73;;;6.70;;
4533;SDS011;2279;51.448;7.306;2023-05-02T14:38:16;8.77;;;4.90;;
4533;SDS011;2279;51.448;7.306;2023-05-02T14:40:42;8.37;;;4.90;;
4533;SDS011;2279;51.448;7.306;2023-05-02T14:43:08;8.13;;;5.33;;
4533;SDS011;2279;51.448;7.306;2023-05-02T14:45:35;6.73;;;5.13;;
4533;SDS011;2279;51.448;7.306;2023-05-02T14:48:01;10.10;;;5.87;;
4533;SDS011;2279;51.448;7.306;2023-05-02T14:50:27;10.23;;;5.13;;
4533;SDS011;2279;51.448;7.306;2023-05-02T14:52:53;10.03;;;6.00;;
4533;SDS011;2279;51.448;7.306;2023-05-02T14:55:20;6.43;;;4.77;;
4533;SDS011;2279;51.448;7.306;2023-05-02T14:57:45;6.50;;;4.63;;
4533;SDS011;2279;51.448;7.306;2023-05-02T15:00:12;7.13;;;4.87;;
4533;SDS011;2279;51.448;7.306;2023-05-02T15:02:38;6.40;;;5.27;;
4533;SDS011;2279;51.448;7.306;2023-05-02T15:05:04;8.93;;;5.37;;
4533;SDS011;2279;51.448;7.306;2023-05-02T15:07:35;7.10;;;5.30;;
4533;SDS011;2279;51.448;7.306;2023-05-02T15:10:01;11.43;;;5.83;;
4533;SDS011;2279;51.448;7.306;2023-05-02T15:12:27;11.50;;;5.97;;
4533;SDS011;2279;51.448;7.306;2023-05-02T15:14:53;7.13;;;4.80;;
4533;SDS011;2279;51.448;7.306;2023-05-02T15:17:19;7.83;;;5.23;;
4533;SDS011;2279;51.448;7.306;2023-05-02T15:19:45;10.50;;;5.57;;
4533;SDS011;2279;51.448;7.306;2023-05-02T15:22:11;7.77;;;4.63;;
4533;SDS011;2279;51.448;7.306;2023-05-02T15:24:37;11.40;;;7.90;;
4533;SDS011;2279;51.448;7.306;2023-05-02T15:27:03;7.07;;;5.93;;
4533;SDS011;2279;51.448;7.306;2023-05-02T15:29:29;10.43;;;7.40;;
4533;SDS011;2279;51.448;7.306;2023-05-02T15:31:55;12.17;;;7.00;;
4533;SDS011;2279;51.448;7.306;2023-05-02T15:34:21;9.03;;;5.63;;
4533;SDS011;2279;51.448;7.306;2023-05-02T15:36:47;14.13;;;8.30;;
4533;SDS011;2279;51.448;7.306;2023-05-02T15:39:13;12.33;;;6.33;;
4533;SDS011;2279;51.448;7.306;2023-05-02T15:41:39;13.40;;;6.60;;